createdAt,value
2019-03-20T00:01:01.105Z,73.42
2019-03-20T00:03:30.945Z,73.35
2019-03-20T00:06:00.755Z,73.53
2019-03-20T00:08:30.504Z,73.69
2019-03-20T00:11:00.296Z,73.45
2019-03-20T00:13:30.044Z,72.91
2019-03-20T00:15:59.954Z,73.27
2019-03-20T00:18:29.750Z,73.39
2019-03-20T00:21:00.169Z,73.49
2019-03-20T00:23:29.940Z,73.46
2019-03-20T00:25:59.745Z,73.43
2019-03-20T00:28:29.533Z,73.13
2019-03-20T00:30:59.336Z,73.37
2019-03-20T00:33:29.109Z,73.57
2019-03-20T00:35:58.880Z,73.30
2019-03-20T00:38:28.668Z,73.45
2019-03-20T00:40:58.411Z,73.59
2019-03-20T00:43:28.215Z,73.73
2019-03-20T00:45:57.958Z,73.63
2019-03-20T00:48:27.730Z,73.43
2019-03-20T00:50:57.515Z,73.32
2019-03-20T00:53:27.314Z,73.89
2019-03-20T00:55:57.085Z,73.92
2019-03-20T00:58:26.884Z,73.91
2019-03-20T01:00:56.651Z,73.77
2019-03-20T01:03:26.383Z,73.98
2019-03-20T01:05:56.204Z,73.79
2019-03-20T01:08:25.957Z,73.66
2019-03-20T01:10:55.764Z,73.79
2019-03-20T01:13:25.517Z,73.82
2019-03-20T01:15:55.284Z,73.74
2019-03-20T01:18:25.061Z,73.56
2019-03-20T01:20:54.805Z,73.58
2019-03-20T01:23:24.679Z,73.92
2019-03-20T01:25:54.430Z,73.96
2019-03-20T01:28:24.225Z,73.92
2019-03-20T01:30:54.002Z,74.12
2019-03-20T01:33:23.801Z,73.76
2019-03-20T01:35:53.592Z,73.98
2019-03-20T01:38:23.400Z,73.92
2019-03-20T01:40:53.172Z,74.14
2019-03-20T01:43:22.938Z,74.31
2019-03-20T01:45:52.720Z,74.60
2019-03-20T01:48:22.454Z,74.58
2019-03-20T01:50:52.250Z,74.58
2019-03-20T01:53:21.984Z,74.61
2019-03-20T01:55:51.779Z,74.52
2019-03-20T01:58:21.537Z,74.36
2019-03-20T02:00:51.315Z,74.37
2019-03-20T02:03:21.102Z,74.26
2019-03-20T02:05:50.892Z,74.45
2019-03-20T02:08:20.679Z,75.11
2019-03-20T02:10:50.480Z,75.07
2019-03-20T02:13:20.325Z,75.05
2019-03-20T02:15:50.121Z,75.02
2019-03-20T02:18:19.899Z,75.01
2019-03-20T02:20:49.653Z,74.68
2019-03-20T02:23:19.480Z,74.56
2019-03-20T02:25:49.212Z,74.69
2019-03-20T02:28:18.991Z,74.69
2019-03-20T02:30:48.782Z,74.56
2019-03-20T02:33:18.964Z,74.44
2019-03-20T02:35:51.708Z,74.74
2019-03-20T02:38:20.360Z,74.54
2019-03-20T02:40:50.139Z,74.52
2019-03-20T02:43:19.929Z,74.75
2019-03-20T02:45:49.709Z,74.37
2019-03-20T02:48:19.522Z,74.64
2019-03-20T02:50:49.321Z,74.74
2019-03-20T02:53:19.079Z,74.44
2019-03-20T02:55:48.944Z,74.26
2019-03-20T02:58:18.679Z,74.64
2019-03-20T03:00:48.497Z,74.45
2019-03-20T03:03:18.238Z,74.69
2019-03-20T03:05:48.036Z,74.52
2019-03-20T03:08:17.767Z,74.60
2019-03-20T03:10:47.533Z,74.68
2019-03-20T03:13:17.311Z,74.74
2019-03-20T03:15:47.107Z,74.78
2019-03-20T03:18:16.887Z,75.06
2019-03-20T03:20:46.646Z,75.00
2019-03-20T03:23:16.635Z,75.08
2019-03-20T03:25:49.933Z,74.83
2019-03-20T03:28:18.393Z,74.79
2019-03-20T03:30:48.200Z,74.96
2019-03-20T03:33:17.971Z,74.81
2019-03-20T03:35:47.743Z,74.91
2019-03-20T03:38:17.523Z,74.88
2019-03-20T03:40:47.257Z,74.55
2019-03-20T03:43:17.062Z,74.83
2019-03-20T03:45:46.796Z,74.94
2019-03-20T03:48:16.574Z,74.89
2019-03-20T03:50:48.234Z,74.95
2019-03-20T03:53:17.874Z,75.36
2019-03-20T03:55:47.661Z,75.68
2019-03-20T03:58:17.434Z,75.54
2019-03-20T04:00:47.211Z,75.76
2019-03-20T04:03:16.954Z,75.69
2019-03-20T04:05:46.764Z,75.48
2019-03-20T04:08:16.527Z,75.52
2019-03-20T04:10:46.339Z,75.27
2019-03-20T04:13:16.176Z,75.07
2019-03-20T04:15:46.085Z,75.11
2019-03-20T04:18:15.825Z,75.05
2019-03-20T04:20:45.611Z,75.53
2019-03-20T04:23:15.429Z,75.36
2019-03-20T04:25:45.242Z,74.84
2019-03-20T04:28:15.026Z,75.02
2019-03-20T04:30:44.893Z,75.00
2019-03-20T04:33:14.686Z,75.24
2019-03-20T04:35:44.441Z,75.17
2019-03-20T04:38:14.253Z,75.05
2019-03-20T04:40:44.001Z,75.32
2019-03-20T04:43:13.795Z,75.05
2019-03-20T04:45:43.577Z,75.02
2019-03-20T04:48:13.389Z,75.25
2019-03-20T04:50:43.160Z,75.16
2019-03-20T04:53:12.992Z,75.24
2019-03-20T04:55:42.763Z,75.15
2019-03-20T04:58:12.551Z,75.13
2019-03-20T05:00:42.323Z,74.90
2019-03-20T05:03:12.090Z,75.16
2019-03-20T05:05:41.901Z,75.07
2019-03-20T05:08:11.667Z,75.07
2019-03-20T05:10:41.474Z,75.33
2019-03-20T05:13:11.261Z,75.40
2019-03-20T05:15:41.046Z,75.76
2019-03-20T05:18:10.827Z,75.62
2019-03-20T05:20:40.570Z,75.33
2019-03-20T05:23:10.384Z,75.57
2019-03-20T05:25:40.151Z,75.28
2019-03-20T05:28:09.925Z,75.28
2019-03-20T05:30:39.707Z,75.16
2019-03-20T05:33:09.458Z,75.13
2019-03-20T05:35:39.258Z,74.90
2019-03-20T05:38:08.998Z,74.80
2019-03-20T05:40:41.505Z,74.70
2019-03-20T05:43:11.278Z,74.47
2019-03-20T05:45:41.063Z,74.60
2019-03-20T05:48:10.844Z,74.70
2019-03-20T05:50:40.598Z,74.50
2019-03-20T05:53:10.409Z,74.63
2019-03-20T05:55:40.170Z,74.32
2019-03-20T05:58:09.973Z,74.11
2019-03-20T06:00:39.810Z,73.98
2019-03-20T06:03:09.647Z,73.97
2019-03-20T06:05:39.419Z,73.58
2019-03-20T06:08:09.214Z,73.40
2019-03-20T06:10:39.002Z,72.86
2019-03-20T06:13:08.776Z,72.80
2019-03-20T06:15:38.574Z,72.37
2019-03-20T06:18:08.320Z,72.26
2019-03-20T06:20:38.198Z,71.51
2019-03-20T06:23:07.989Z,71.44
2019-03-20T06:25:39.324Z,71.12
2019-03-20T06:28:09.082Z,71.03
2019-03-20T06:30:39.065Z,70.99
2019-03-20T06:33:08.831Z,70.21
2019-03-20T06:35:38.645Z,69.47
2019-03-20T06:38:12.347Z,69.55
2019-03-20T06:40:42.860Z,68.61
2019-03-20T06:43:12.639Z,67.86
2019-03-20T06:45:42.454Z,67.66
2019-03-20T06:48:12.345Z,67.18
2019-03-20T06:50:42.112Z,67.01
2019-03-20T06:53:11.908Z,66.35
2019-03-20T06:55:41.643Z,65.68
2019-03-20T06:58:11.434Z,65.59
2019-03-20T07:00:49.941Z,65.25
2019-03-20T07:03:37.829Z,65.36
2019-03-20T07:06:30.001Z,64.49
2019-03-20T07:09:11.835Z,64.32
2019-03-20T07:11:41.569Z,64.03
2019-03-20T07:14:11.354Z,64.14
2019-03-20T07:16:41.118Z,63.96
2019-03-20T07:19:10.888Z,64.00
2019-03-20T07:21:40.792Z,63.44
2019-03-20T07:24:10.646Z,64.04
2019-03-20T07:26:40.453Z,63.91
2019-03-20T07:29:10.362Z,64.13
2019-03-20T07:31:40.142Z,64.09
2019-03-20T07:34:09.933Z,63.81
2019-03-20T07:36:39.738Z,64.21
2019-03-20T07:39:10.132Z,63.90
2019-03-20T07:41:40.431Z,63.50
2019-03-20T07:44:10.265Z,63.23
2019-03-20T07:46:40.082Z,63.34
2019-03-20T07:49:10.159Z,63.79
2019-03-20T07:51:39.886Z,63.55
2019-03-20T07:54:09.680Z,63.60
2019-03-20T07:56:39.410Z,63.20
2019-03-20T07:59:09.180Z,62.83
2019-03-20T08:01:38.959Z,62.88
2019-03-20T08:04:08.754Z,62.99
2019-03-20T08:06:38.519Z,61.91
2019-03-20T08:09:08.411Z,62.36
2019-03-20T08:11:38.177Z,62.10
2019-03-20T08:14:07.956Z,61.88
2019-03-20T08:16:37.734Z,61.64
2019-03-20T08:19:07.561Z,61.66
2019-03-20T08:21:37.350Z,61.90
2019-03-20T08:24:07.082Z,61.44
2019-03-20T08:26:36.853Z,61.61
2019-03-20T08:29:06.673Z,61.98
2019-03-20T08:31:36.398Z,61.66
2019-03-20T08:34:06.193Z,61.14
2019-03-20T08:36:35.927Z,60.08
2019-03-20T08:39:06.644Z,60.43
2019-03-20T08:41:36.375Z,60.28
2019-03-20T08:44:06.175Z,60.02
2019-03-20T08:46:35.917Z,59.31
2019-03-20T08:49:05.708Z,59.21
2019-03-20T08:51:35.474Z,59.72
2019-03-20T08:54:05.275Z,58.63
2019-03-20T08:56:35.036Z,57.96
2019-03-20T08:59:04.792Z,58.32
2019-03-20T09:01:34.569Z,59.39
2019-03-20T09:04:04.312Z,58.52
2019-03-20T09:06:34.106Z,57.07
2019-03-20T09:09:05.392Z,56.40
2019-03-20T09:11:35.203Z,55.83
2019-03-20T09:14:04.940Z,56.77
2019-03-20T09:16:34.703Z,55.57
2019-03-20T09:19:04.484Z,54.58
2019-03-20T09:21:34.265Z,54.82
2019-03-20T09:24:04.108Z,54.55
2019-03-20T09:26:33.883Z,54.27
2019-03-20T09:29:03.646Z,54.37
2019-03-20T09:31:33.389Z,54.78
2019-03-20T09:34:03.372Z,53.89
2019-03-20T09:36:42.648Z,54.00
2019-03-20T09:39:06.798Z,52.78
2019-03-20T09:41:36.565Z,50.09
2019-03-20T09:44:06.361Z,49.52
2019-03-20T09:46:36.123Z,48.25
2019-03-20T09:49:05.899Z,48.35
2019-03-20T09:51:35.669Z,49.19
2019-03-20T09:54:05.398Z,45.88
2019-03-20T09:56:35.204Z,48.45
2019-03-20T09:59:04.922Z,44.41
2019-03-20T10:01:34.675Z,44.46
2019-03-20T10:04:04.452Z,45.18
2019-03-20T10:06:34.225Z,48.39
2019-03-20T10:09:05.196Z,47.09
2019-03-20T10:11:34.944Z,49.13
2019-03-20T10:14:04.758Z,46.45
2019-03-20T10:16:34.520Z,46.85
2019-03-20T10:19:04.298Z,45.92
2019-03-20T10:21:34.044Z,45.85
2019-03-20T10:24:03.766Z,46.81
2019-03-20T10:26:33.671Z,46.13
2019-03-20T10:29:03.402Z,44.03
2019-03-20T10:31:33.188Z,46.84
2019-03-20T10:34:03.022Z,47.16
2019-03-20T10:36:32.821Z,46.96
2019-03-20T10:39:06.758Z,46.56
2019-03-20T10:41:34.043Z,46.10
2019-03-20T10:44:03.777Z,43.41
2019-03-20T10:46:33.536Z,43.54
2019-03-20T10:49:03.316Z,43.79
2019-03-20T10:51:33.092Z,43.28
2019-03-20T10:54:02.850Z,42.64
2019-03-20T10:56:32.618Z,41.39
2019-03-20T10:59:02.439Z,43.35
2019-03-20T11:01:42.012Z,40.45
2019-03-20T11:04:03.674Z,40.63
2019-03-20T11:06:33.404Z,41.63
2019-03-20T11:09:03.199Z,41.86
2019-03-20T11:11:32.923Z,41.76
2019-03-20T11:14:02.698Z,42.55
2019-03-20T11:16:32.463Z,41.23
2019-03-20T11:19:02.209Z,40.02
2019-03-20T11:21:31.975Z,39.96
2019-03-20T11:24:01.713Z,42.10
2019-03-20T11:26:31.563Z,40.62
2019-03-20T11:29:01.324Z,42.08
2019-03-20T11:31:31.102Z,41.18
2019-03-20T11:34:00.857Z,40.89
2019-03-20T11:36:30.729Z,40.95
2019-03-20T11:39:00.502Z,41.34
2019-03-20T11:41:30.633Z,38.70
2019-03-20T11:44:00.433Z,41.30
2019-03-20T11:46:30.202Z,41.05
2019-03-20T11:48:59.991Z,42.03
2019-03-20T11:51:29.774Z,41.39
2019-03-20T11:53:59.541Z,42.71
2019-03-20T11:56:29.352Z,41.55
2019-03-20T11:58:59.204Z,42.37
2019-03-20T12:01:28.994Z,42.95
2019-03-20T12:03:58.774Z,42.97
2019-03-20T12:06:28.541Z,42.81
2019-03-20T12:08:58.318Z,42.28
2019-03-20T12:11:28.067Z,42.71
2019-03-20T12:13:57.868Z,41.50
2019-03-20T12:16:27.593Z,42.05
2019-03-20T12:18:57.367Z,39.18
2019-03-20T12:21:27.159Z,39.48
2019-03-20T12:23:56.885Z,40.28
2019-03-20T12:26:26.674Z,41.45
2019-03-20T12:28:56.424Z,41.26
2019-03-20T12:31:26.206Z,41.55
2019-03-20T12:33:55.980Z,41.21
2019-03-20T12:36:26.089Z,41.32
2019-03-20T12:38:55.884Z,40.93
2019-03-20T12:41:25.710Z,40.75
2019-03-20T12:43:55.570Z,41.29
2019-03-20T12:46:25.452Z,40.03
2019-03-20T12:48:55.225Z,40.93
2019-03-20T12:51:24.949Z,39.53
2019-03-20T12:53:54.843Z,38.61
2019-03-20T12:56:24.585Z,40.32
2019-03-20T12:58:54.351Z,40.22
2019-03-20T13:01:24.134Z,39.27
2019-03-20T13:03:53.904Z,38.16
2019-03-20T13:06:23.683Z,39.89
2019-03-20T13:08:53.416Z,38.70
2019-03-20T13:11:23.215Z,39.85
2019-03-20T13:13:52.973Z,39.81
2019-03-20T13:16:22.885Z,38.84
2019-03-20T13:18:52.776Z,37.73
2019-03-20T13:21:22.579Z,38.53
2019-03-20T13:23:52.351Z,38.34
2019-03-20T13:26:22.148Z,38.51
2019-03-20T13:28:51.907Z,38.38
2019-03-20T13:31:23.313Z,37.99
2019-03-20T13:33:53.094Z,37.82
2019-03-20T13:36:22.858Z,38.20
2019-03-20T13:38:52.613Z,37.41
2019-03-20T13:41:22.336Z,38.55
2019-03-20T13:43:52.140Z,38.30
2019-03-20T13:46:21.901Z,37.99
2019-03-20T13:48:51.655Z,38.97
2019-03-20T13:51:21.430Z,38.30
2019-03-20T13:53:51.229Z,38.63
2019-03-20T13:56:21.006Z,38.80
2019-03-20T13:58:52.330Z,38.73
2019-03-20T14:01:22.352Z,37.30
2019-03-20T14:03:52.158Z,37.04
2019-03-20T14:06:21.924Z,37.46
2019-03-20T14:08:54.458Z,37.58
2019-03-20T14:11:24.230Z,38.40
2019-03-20T14:13:54.035Z,37.51
2019-03-20T14:16:23.814Z,37.54
2019-03-20T14:18:53.588Z,38.75
2019-03-20T14:21:23.377Z,37.71
2019-03-20T14:23:53.105Z,37.21
2019-03-20T14:26:22.894Z,37.98
2019-03-20T14:28:52.654Z,37.85
2019-03-20T14:31:22.463Z,37.07
2019-03-20T14:33:52.236Z,36.33
2019-03-20T14:36:22.029Z,36.26
2019-03-20T14:38:51.809Z,35.94
2019-03-20T14:41:21.957Z,37.01
2019-03-20T14:43:51.858Z,37.10
2019-03-20T14:46:21.611Z,36.93
2019-03-20T14:48:51.413Z,36.93
2019-03-20T14:51:21.172Z,37.00
2019-03-20T14:53:50.974Z,37.86
2019-03-20T14:56:20.749Z,37.71
2019-03-20T14:58:50.504Z,37.54
2019-03-20T15:01:20.285Z,37.92
2019-03-20T15:03:51.791Z,37.41
2019-03-20T15:06:21.591Z,36.01
2019-03-20T15:08:51.322Z,35.50
2019-03-20T15:11:21.063Z,36.81
2019-03-20T15:13:50.956Z,35.16
2019-03-20T15:16:20.702Z,36.36
2019-03-20T15:18:50.487Z,36.12
2019-03-20T15:21:20.217Z,36.15
2019-03-20T15:23:49.986Z,36.26
2019-03-20T15:26:19.772Z,36.72
2019-03-20T15:28:49.578Z,37.23
2019-03-20T15:31:19.346Z,38.09
2019-03-20T15:33:49.161Z,38.50
2019-03-20T15:36:18.978Z,38.24
2019-03-20T15:38:48.734Z,37.71
2019-03-20T15:41:18.503Z,37.74
2019-03-20T15:43:48.252Z,38.23
2019-03-20T15:46:18.061Z,38.00
2019-03-20T15:48:47.794Z,38.32
2019-03-20T15:51:17.572Z,38.30
2019-03-20T15:53:47.457Z,38.42
2019-03-20T15:56:17.258Z,38.95
2019-03-20T15:58:47.052Z,39.53
2019-03-20T16:01:16.841Z,39.66
2019-03-20T16:03:49.629Z,40.29
2019-03-20T16:06:19.428Z,40.59
2019-03-20T16:08:49.220Z,40.90
2019-03-20T16:11:19.001Z,40.50
2019-03-20T16:13:48.787Z,40.55
2019-03-20T16:16:18.527Z,41.02
2019-03-20T16:18:48.331Z,41.13
2019-03-20T16:21:18.085Z,41.71
2019-03-20T16:23:47.934Z,41.93
2019-03-20T16:26:17.698Z,42.69
2019-03-20T16:28:47.513Z,42.67
2019-03-20T16:31:17.266Z,42.82
2019-03-20T16:33:47.053Z,43.33
2019-03-20T16:36:16.853Z,43.39
2019-03-20T16:38:46.652Z,43.53
2019-03-20T16:41:17.187Z,43.84
2019-03-20T16:43:47.106Z,43.98
2019-03-20T16:46:16.883Z,43.92
2019-03-20T16:48:46.700Z,44.41
2019-03-20T16:51:16.481Z,44.85
2019-03-20T16:53:46.244Z,45.35
2019-03-20T16:56:16.032Z,45.51
2019-03-20T16:58:45.769Z,45.73
2019-03-20T17:01:15.569Z,46.11
2019-03-20T17:03:45.320Z,46.32
2019-03-20T17:06:15.107Z,46.66
2019-03-20T17:08:44.853Z,46.43
2019-03-20T17:11:14.628Z,46.96
2019-03-20T17:13:44.405Z,47.13
2019-03-20T17:16:14.206Z,47.60
2019-03-20T17:18:43.975Z,47.69
2019-03-20T17:21:13.747Z,47.78
2019-03-20T17:23:43.539Z,47.96
2019-03-20T17:26:13.283Z,48.15
2019-03-20T17:28:43.100Z,48.68
2019-03-20T17:31:12.843Z,47.99
2019-03-20T17:33:42.623Z,48.64
2019-03-20T17:36:12.411Z,48.60
2019-03-20T17:38:42.228Z,48.84
2019-03-20T17:41:12.002Z,49.44
2019-03-20T17:43:41.776Z,49.49
2019-03-20T17:46:11.566Z,49.69
2019-03-20T17:48:41.318Z,50.07
2019-03-20T17:51:11.131Z,50.40
2019-03-20T17:53:40.875Z,50.26
2019-03-20T17:56:12.250Z,50.42
2019-03-20T17:58:41.991Z,50.35
2019-03-20T18:01:11.803Z,50.61
2019-03-20T18:03:41.546Z,50.74
2019-03-20T18:06:11.313Z,50.85
2019-03-20T18:08:41.111Z,51.00
2019-03-20T18:11:10.873Z,51.28
2019-03-20T18:13:40.674Z,51.21
2019-03-20T18:16:10.422Z,50.85
2019-03-20T18:18:40.198Z,50.92
2019-03-20T18:21:09.967Z,50.93
2019-03-20T18:23:39.775Z,50.99
2019-03-20T18:26:10.456Z,51.44
2019-03-20T18:28:40.847Z,51.53
2019-03-20T18:31:10.657Z,51.71
2019-03-20T18:33:40.540Z,51.80
2019-03-20T18:36:12.173Z,51.99
2019-03-20T18:38:44.331Z,52.39
2019-03-20T18:41:16.148Z,52.30
2019-03-20T18:43:47.349Z,51.99
2019-03-20T18:46:17.563Z,52.04
2019-03-20T18:48:47.734Z,52.09
2019-03-20T18:51:18.549Z,51.79
2019-03-20T18:53:49.895Z,51.81
2019-03-20T18:56:21.208Z,51.46
2019-03-20T18:58:52.362Z,51.35
2019-03-20T19:01:24.766Z,51.32
2019-03-20T19:03:55.041Z,51.59
2019-03-20T19:06:28.331Z,51.52
2019-03-20T19:09:00.144Z,51.17
2019-03-20T19:11:30.830Z,51.09
2019-03-20T19:14:01.535Z,51.29
2019-03-20T19:16:35.211Z,51.11
2019-03-20T19:19:06.672Z,51.05
2019-03-20T19:21:37.044Z,50.92
2019-03-20T19:24:08.231Z,50.41
2019-03-20T19:26:38.490Z,50.55
2019-03-20T19:29:11.279Z,50.39
2019-03-20T19:31:42.250Z,50.49
2019-03-20T19:34:13.424Z,50.71
2019-03-20T19:36:44.345Z,50.50
2019-03-20T19:39:14.744Z,50.29
2019-03-20T19:41:46.831Z,50.05
2019-03-20T19:44:18.001Z,50.01
2019-03-20T19:46:51.229Z,49.95
2019-03-20T19:49:21.932Z,50.03
2019-03-20T19:51:52.823Z,49.85
2019-03-20T19:54:23.410Z,49.63
2019-03-20T19:56:59.091Z,49.49
2019-03-20T19:59:30.111Z,49.64
2019-03-20T20:02:00.881Z,49.67
2019-03-20T20:04:33.509Z,49.59
2019-03-20T20:07:03.605Z,49.74
2019-03-20T20:09:34.800Z,49.76
2019-03-20T20:12:07.880Z,49.55
2019-03-20T20:14:39.475Z,49.55
2019-03-20T20:17:10.032Z,49.53
2019-03-20T20:19:41.663Z,49.19
2019-03-20T20:22:12.465Z,49.27
2019-03-20T20:24:42.386Z,48.60
2019-03-20T20:27:17.333Z,48.49
2019-03-20T20:29:50.346Z,48.64
2019-03-20T20:32:21.429Z,48.12
2019-03-20T20:34:51.813Z,48.21
2019-03-20T20:37:23.129Z,48.43
2019-03-20T20:39:55.695Z,48.55
2019-03-20T20:42:42.312Z,48.40
2019-03-20T20:45:03.397Z,48.56
2019-03-20T20:47:33.289Z,48.48
2019-03-20T20:50:03.559Z,48.34
2019-03-20T20:52:38.219Z,48.42
2019-03-20T20:55:12.094Z,48.81
2019-03-20T20:57:53.698Z,48.57
2019-03-20T21:00:25.705Z,48.53
2019-03-20T21:02:57.998Z,48.95
2019-03-20T21:05:28.664Z,49.31
2019-03-20T21:08:00.426Z,48.97
2019-03-20T21:10:32.064Z,48.87
2019-03-20T21:13:04.638Z,49.18
2019-03-20T21:15:40.331Z,48.96
2019-03-20T21:18:19.343Z,49.62
2019-03-20T21:20:52.921Z,49.40
2019-03-20T21:23:38.688Z,49.54
2019-03-20T21:26:17.535Z,49.51
2019-03-20T21:29:25.573Z,49.72
2019-03-20T21:32:13.886Z,49.59
2019-03-20T21:35:13.312Z,49.80
2019-03-20T21:37:46.612Z,49.92
2019-03-20T21:40:18.281Z,49.70
2019-03-20T21:43:12.146Z,50.15
2019-03-20T21:46:06.259Z,50.19
2019-03-20T21:48:39.997Z,50.06
2019-03-20T21:51:20.694Z,50.22
2019-03-20T21:54:17.918Z,50.05
2019-03-20T21:57:09.727Z,49.74
2019-03-20T22:00:11.183Z,49.58
2019-03-20T22:02:53.320Z,49.48
2019-03-20T22:05:41.323Z,49.77
2019-03-20T22:08:16.531Z,49.35
2019-03-20T22:14:07.668Z,49.91
2019-03-20T22:16:40.213Z,50.08
2019-03-20T22:19:18.808Z,49.93
2019-03-20T22:22:17.425Z,50.20
2019-03-20T22:25:16.157Z,50.33
2019-03-20T22:28:06.378Z,50.22
2019-03-20T22:30:36.150Z,50.39
2019-03-20T22:33:43.378Z,50.42
2019-03-20T22:36:17.943Z,50.75
2019-03-20T22:39:14.987Z,50.23
2019-03-20T22:41:58.968Z,50.46
2019-03-20T22:44:32.820Z,50.48
2019-03-20T22:47:40.221Z,50.42
2019-03-20T22:50:23.943Z,50.54
2019-03-20T22:53:26.367Z,50.57
2019-03-20T22:56:12.575Z,50.87
2019-03-20T22:58:45.870Z,50.79
2019-03-20T23:01:27.678Z,50.63
2019-03-20T23:04:06.440Z,50.74
2019-03-20T23:06:36.258Z,50.91
2019-03-20T23:09:08.234Z,51.01
2019-03-20T23:11:38.030Z,50.87
2019-03-20T23:14:07.805Z,50.85
2019-03-20T23:16:37.613Z,51.07
2019-03-20T23:19:07.393Z,50.90
2019-03-20T23:21:37.159Z,51.29
2019-03-20T23:24:06.931Z,50.91
2019-03-20T23:26:36.689Z,51.08
2019-03-20T23:29:06.548Z,50.87
2019-03-20T23:31:36.319Z,50.96
2019-03-20T23:34:06.089Z,50.99
2019-03-20T23:36:35.862Z,51.21
2019-03-20T23:39:07.474Z,51.21
2019-03-20T23:41:37.250Z,51.04
2019-03-20T23:44:07.011Z,51.17
2019-03-20T23:46:37.375Z,51.34
2019-03-20T23:49:10.283Z,51.37
2019-03-20T23:51:40.058Z,51.64
2019-03-20T23:54:10.180Z,51.67
2019-03-20T23:56:42.087Z,51.65
2019-03-20T23:59:11.825Z,51.58
